METAR Data
IDs: Format: Raw Decoded Include TAF

Data at: 2222 UTC 22 Sep 2020

KMDZ 222215Z AUTO 22005KT 10SM CLR 24/15 A3005 RMK AO2 T02360146
KMDZ 222155Z AUTO 22003KT 10SM SCT043 24/14 A3005 RMK AO2 T02400143
KMDZ 222135Z AUTO 21004KT 10SM SCT043 24/14 A3006 RMK AO2 T02420141
KMDZ 222115Z AUTO 20005KT 10SM CLR 24/14 A3006 RMK AO2 T02410141
KMDZ 222055Z AUTO 20005KT 10SM CLR 25/14 A3007 RMK AO2 T02450141
KMDZ 222035Z AUTO 21004KT 10SM CLR 25/12 A3007 RMK AO2 T02490124
KMDZ 222015Z AUTO 22007KT 10SM CLR 25/12 A3007 RMK AO2 T02470124
KMDZ 221955Z AUTO 23005KT 10SM CLR 25/13 A3008 RMK AO2 T02470128
KMDZ 221935Z AUTO 20005KT 10SM CLR 25/12 A3008 RMK AO2 T02450123
KMDZ 221915Z AUTO 16003KT 10SM CLR 25/12 A3009 RMK AO2 T02450118
KMDZ 221855Z AUTO 16005KT 10SM CLR 24/13 A3009 RMK AO2 T02410126
KMDZ 221835Z AUTO 17005KT 10SM CLR A3010 RMK AO2
KMDZ 221815Z AUTO 17003KT 10SM CLR A3011 RMK AO2
KMDZ 221755Z AUTO 00000KT 10SM CLR A3012 RMK AO2 6////
KMDZ 221735Z AUTO 20003KT 10SM CLR A3013 RMK AO2
KMDZ 221715Z AUTO 17003KT 10SM CLR A3013 RMK AO2
KMDZ 221655Z AUTO 20003KT 10SM CLR A3013 RMK AO2
KMDZ 221635Z AUTO 00000KT 10SM CLR A3014 RMK AO2
KMDZ 221615Z AUTO 23003KT 10SM CLR A3014 RMK AO2
KMDZ 221555Z AUTO 25003KT 10SM 20/14 A3015 RMK AO2 T01950141 PWINO
KMDZ 221515Z AUTO 22004KT 10SM CLR 19/14 A3015 RMK AO2 P0003 T01850139
KMDZ 221435Z AUTO 23003KT 10SM CLR 17/13 A3015 RMK AO2 T01680131
KMDZ 221415Z AUTO 00000KT 10SM CLR 16/12 A3015 RMK AO2 T01550124
KMDZ 221355Z AUTO 24003KT 10SM CLR 14/12 A3015 RMK AO2 T01440116
KMDZ 221335Z AUTO 00000KT 10SM CLR 13/11 A3015 RMK AO2 T01290112
KMDZ 221315Z AUTO 00000KT 10SM CLR 12/11 A3015 RMK AO2 T01200110
KMDZ 221255Z AUTO 00000KT 10SM CLR 10/10 A3015 RMK AO2 T00990099
KMDZ 221235Z AUTO 00000KT 10SM CLR 09/09 A3015 RMK AO2 T00900090
KMDZ 221215Z AUTO 00000KT 10SM CLR 09/09 A3015 RMK AO2 T00850085
KMDZ 221155Z AUTO 00000KT 10SM CLR 09/09 A3014 RMK AO2 T00900087 10120 20090
KMDZ 221135Z AUTO 21003KT 10SM CLR 10/09 A3013 RMK AO2 T00980092
KMDZ 221115Z AUTO 00000KT 10SM CLR 10/09 A3013 RMK AO2 T01040093
KMDZ 221055Z AUTO 22003KT 10SM CLR 11/09 A3014 RMK AO2 T01060094
KMDZ 221035Z AUTO 21003KT 10SM CLR 11/10 A3014 RMK AO2 T01110095
KMDZ 221015Z AUTO 22003KT 10SM CLR 12/10 A3014 RMK AO2 T01160095
KMDZ 220955Z AUTO 21003KT 10SM CLR 12/10 A3014 RMK AO2 T01150095
KMDZ 220935Z AUTO 20005KT 10SM CLR 12/10 A3014 RMK AO2 T01160095
KMDZ 220915Z AUTO 20004KT 10SM CLR 12/10 A3014 RMK AO2 T01150095
KMDZ 220855Z AUTO 20004KT 10SM CLR 12/09 A3014 RMK AO2 T01150093
KMDZ 220835Z AUTO 20004KT 10SM CLR 12/09 A3014 RMK AO2 T01180094
KMDZ 220815Z AUTO 20004KT 10SM CLR 12/09 A3014 RMK AO2 T01170093
KMDZ 220755Z AUTO 20004KT 10SM CLR 12/09 A3014 RMK AO2 LTG DSNT SW T01200093
KMDZ 220735Z AUTO 19003KT 10SM CLR 11/09 A3014 RMK AO2 T01110092
KMDZ 220715Z AUTO 17005KT 10SM CLR 11/09 A3014 RMK AO2 T01100092
KMDZ 220655Z AUTO 17005KT 10SM CLR 11/09 A3014 RMK AO2 T01080093
KMDZ 220635Z AUTO 18005KT 10SM CLR 11/09 A3015 RMK AO2 LTG DSNT S T01050093
KMDZ 220615Z AUTO 18006KT 10SM CLR 10/09 A3015 RMK AO2 T01010093
KMDZ 220555Z AUTO 17005KT 10SM CLR 10/09 A3015 RMK AO2 T01010093 10165 20101 402170067
KMDZ 220535Z AUTO 17005KT 10SM CLR 10/10 A3015 RMK AO2 T01040095
KMDZ 220515Z AUTO 17006KT 10SM CLR 11/10 A3015 RMK AO2 LTG DSNT SE T01080098
KMDZ 220455Z AUTO 17006KT 10SM CLR 11/10 A3015 RMK AO2 LTG DSNT SE T01120100
KMDZ 220435Z AUTO 17005KT 10SM CLR 12/10 A3016 RMK AO2 T01150103
KMDZ 220415Z AUTO 17006KT 10SM CLR 11/11 A3015 RMK AO2 T01140105
KMDZ 220355Z AUTO 17006KT 10SM CLR 12/11 A3015 RMK AO2 LTG DSNT SE T01150106
KMDZ 220335Z AUTO 16005KT 10SM CLR 12/11 A3015 RMK AO2 LTG DSNT S T01150108
KMDZ 220315Z AUTO 16005KT 10SM CLR 12/11 A3015 RMK AO2 T01190110
KMDZ 220255Z AUTO 16004KT 10SM CLR 12/11 A3015 RMK AO2 T01230112
KMDZ 220235Z AUTO 16005KT 10SM CLR 12/11 A3016 RMK AO2 T01240113
KMDZ 220215Z AUTO 16005KT 10SM CLR 13/12 A3016 RMK AO2 T01250115
KMDZ 220155Z AUTO 16005KT 10SM CLR 13/12 A3016 RMK AO2 T01300115
KMDZ 220135Z AUTO 17005KT 10SM CLR 13/12 A3016 RMK AO2 T01320117
KMDZ 220115Z AUTO 17006KT 10SM CLR 14/12 A3015 RMK AO2 T01360120
KMDZ 220055Z AUTO 17005KT 10SM CLR 15/12 A3015 RMK AO2 T01450123
KMDZ 220035Z AUTO 17006KT 10SM SCT100 15/13 A3014 RMK AO2 LTG DSNT NE T01490127
KMDZ 220015Z AUTO 17008KT 10SM BKN100 16/13 A3014 RMK AO2 T01600127
KMDZ 212355Z AUTO 17009KT 10SM TS OVC110 17/13 A3013 RMK AO2 LTG DSNT NE THRU S T01650130 10217 20165
KMDZ 212335Z AUTO 18012G16KT 10SM -RA BKN110 17/13 A3013 RMK AO2 LTG DSNT ALQS T01690131
KMDZ 212315Z AUTO 17009KT 10SM SCT120 17/13 A3013 RMK AO2 LTG DSNT N NE AND SW T01720127
KMDZ 212255Z AUTO 17011KT 10SM -VCTSRA SCT095 SCT120 17/13 A3013 RMK AO2 LTG DSNT N NE AND SW T01730130
KMDZ 212235Z AUTO 17011G16KT 10SM TS SCT100 BKN120 18/12 A3013 RMK AO2 LTG DSNT NE SW AND W T01820123
KMDZ 212215Z AUTO 19010KT 10SM VCTS BKN110 19/12 A3015 RMK AO2 LTG DSNT NW T01930117
KMDZ 212155Z AUTO 22009G16KT 10SM BKN110 20/12 A3018 RMK AO2 LTG DSNT N AND W T01990117
KMDZ 212135Z AUTO 19014G19KT 10SM VCTS BKN110 20/12 A3015 RMK AO2 LTG DSNT N AND NW T02030117
KMDZ 212115Z AUTO 18011G16KT 10SM VCTS SCT100 21/12 A3013 RMK AO2 LTG DSNT W THRU N T02080119
KMDZ 212055Z AUTO 18012G20KT 10SM VCTS SCT110 21/12 A3013 RMK AO2 LTG DSNT W AND NW T02110117
KMDZ 212035Z AUTO 19010G20KT 10SM SCT100 22/12 A3015 RMK AO2 LTG DSNT W AND NW T02170115
KMDZ 212015Z AUTO 18010G19KT 10SM SCT100 SCT120 21/11 A3015 RMK AO2 LTG DSNT W T02110114
KMDZ 211955Z AUTO 18011G17KT 10SM SCT100 SCT120 20/11 A3016 RMK AO2 LTG DSNT W T02020108
KMDZ 211935Z AUTO 19013G18KT 10SM SCT100 20/11 A3017 RMK AO2 LTG DSNT W T01990105
KMDZ 211915Z AUTO 19011G17KT 10SM BKN100 21/11 A3017 RMK AO2 T02060105
KMDZ 211855Z AUTO 19011G18KT 10SM OVC100 19/10 A3019 RMK AO2 T01940101
KMDZ 211835Z AUTO 18013G17KT 10SM OVC100 19/10 A3020 RMK AO2 T01900097
KMDZ 211815Z AUTO 20012G16KT 10SM SCT100 20/10 A3020 RMK AO2 T01970097
KMDZ 211755Z AUTO 20012G16KT 10SM CLR 19/09 A3021 RMK AO2 T01920094 10195 20086
KMDZ 211735Z AUTO 20013G16KT 10SM CLR 19/09 A3021 RMK AO2 T01900090
KMDZ 211715Z AUTO 19009KT 10SM CLR 18/08 A3022 RMK AO2 T01790084
KMDZ 211655Z AUTO 18013G17KT 10SM CLR 18/08 A3022 RMK AO2 T01770080
KMDZ 211635Z AUTO 19009G14KT 10SM CLR 18/08 A3023 RMK AO2 LTG DSNT W T01760077
KMDZ 211615Z AUTO 18011G16KT 10SM CLR 17/07 A3024 RMK AO2 T01670070
KMDZ 211555Z AUTO 19010G14KT 10SM CLR 16/07 A3025 RMK AO2 LTG DSNT W T01610065
KMDZ 211535Z AUTO 18009KT 10SM CLR 16/06 A3025 RMK AO2 T01560064
KMDZ 211515Z AUTO 19010G15KT 10SM CLR 15/06 A3025 RMK AO2 T01490060
KMDZ 211455Z AUTO 19008G16KT 10SM CLR 15/06 A3025 RMK AO2 T01450056
KMDZ 211435Z AUTO 18010G16KT 10SM CLR 13/06 A3025 RMK AO2 T01340055
KMDZ 211415Z AUTO 18009KT 10SM CLR 12/05 A3025 RMK AO2 T01200053
KMDZ 211355Z AUTO 17008KT 10SM CLR 11/05 A3025 RMK AO2 T01130050
KMDZ 211335Z AUTO 17010KT 10SM CLR 11/05 A3025 RMK AO2 T01110047
KMDZ 211315Z AUTO 18008KT 10SM CLR 11/05 A3026 RMK AO2 T01050046
KMDZ 211255Z AUTO 17008G14KT 10SM CLR 10/05 A3026 RMK AO2 T00950048
KMDZ 211235Z AUTO 17008KT 10SM CLR 09/05 A3026 RMK AO2 T00930048
KMDZ 211215Z AUTO 17009KT 10SM CLR 09/05 A3025 RMK AO2 T00890047
KMDZ 211155Z AUTO 16008KT 10SM CLR 09/05 A3026 RMK AO2 T00860047 10100 20067
KMDZ 211135Z AUTO 17006KT 10SM CLR 09/05 A3026 RMK AO2 T00860050
KMDZ 211115Z AUTO 17007KT 10SM CLR 09/05 A3026 RMK AO2 T00860051
KMDZ 211055Z AUTO 16007KT 10SM CLR 09/05 A3026 RMK AO2 T00850051
KMDZ 211035Z AUTO 16007KT 10SM CLR 08/05 A3026 RMK AO2 T00820052